createdAt,value
2023-05-12T00:01:56.892Z,100236.22
2023-05-12T00:04:23.668Z,100233.47
2023-05-12T00:06:50.390Z,100232.56
2023-05-12T00:09:17.211Z,100243.63
2023-05-12T00:11:44.088Z,100234.31
2023-05-12T00:14:10.822Z,100239.81
2023-05-12T00:16:37.652Z,100234.66
2023-05-12T00:19:04.485Z,100223.69
2023-05-12T00:21:31.326Z,100232.00
2023-05-12T00:23:58.097Z,100232.66
2023-05-12T00:26:25.034Z,100229.16
2023-05-12T00:28:52.535Z,100233.34
2023-05-12T00:31:19.330Z,100228.22
2023-05-12T00:33:46.102Z,100218.72
2023-05-12T00:36:12.832Z,100227.06
2023-05-12T00:38:39.798Z,100227.06
2023-05-12T00:41:06.523Z,100234.38
2023-05-12T00:43:33.815Z,100214.59
2023-05-12T00:46:02.539Z,100225.72
2023-05-12T00:48:29.391Z,100220.44
2023-05-12T00:50:57.777Z,100225.72
2023-05-12T00:53:26.658Z,100209.78
2023-05-12T00:55:57.723Z,100216.06
2023-05-12T00:58:27.001Z,100215.28
2023-05-12T01:00:53.813Z,100219.56
2023-05-12T01:03:21.390Z,100219.91
2023-05-12T01:06:00.165Z,100222.22
2023-05-12T01:08:27.120Z,100223.72
2023-05-12T01:10:54.005Z,100219.59
2023-05-12T01:13:21.180Z,100215.75
2023-05-12T01:15:50.248Z,100216.06
2023-05-12T01:18:21.616Z,100223.06
2023-05-12T01:20:48.848Z,100224.56
2023-05-12T01:23:19.794Z,100223.19
2023-05-12T01:25:50.285Z,100219.50
2023-05-12T01:28:18.082Z,100232.22
2023-05-12T01:30:46.074Z,100222.22
2023-05-12T01:33:14.300Z,100220.06
2023-05-12T01:35:41.711Z,100217.28
2023-05-12T01:38:08.472Z,100221.25
2023-05-12T01:40:38.414Z,100222.91
2023-05-12T01:43:05.650Z,100218.41
2023-05-12T01:45:33.458Z,100224.75
2023-05-12T01:48:00.345Z,100227.34
2023-05-12T01:50:27.472Z,100218.22
2023-05-12T01:52:55.086Z,100226.91
2023-05-12T01:55:22.387Z,100221.44
2023-05-12T01:57:55.580Z,100230.56
2023-05-12T02:00:23.070Z,100224.41
2023-05-12T02:02:52.964Z,100223.06
2023-05-12T02:05:20.259Z,100227.88
2023-05-12T02:07:49.401Z,100235.03
2023-05-12T02:10:17.050Z,100222.38
2023-05-12T02:12:44.511Z,100222.19
2023-05-12T02:15:11.850Z,100219.22
2023-05-12T02:17:44.421Z,100218.91
2023-05-12T02:20:12.358Z,100216.09
2023-05-12T02:22:39.239Z,100217.06
2023-05-12T02:25:06.661Z,100221.41
2023-05-12T02:27:33.620Z,100224.88
2023-05-12T02:30:00.635Z,100227.53
2023-05-12T02:32:30.534Z,100226.22
2023-05-12T02:34:57.406Z,100226.06
2023-05-12T02:37:24.186Z,100219.44
2023-05-12T02:39:51.124Z,100221.06
2023-05-12T02:42:18.859Z,100216.09
2023-05-12T02:44:45.652Z,100223.41
2023-05-12T02:47:12.486Z,100225.94
2023-05-12T02:49:39.572Z,100227.25
2023-05-12T02:52:06.770Z,100219.25
2023-05-12T02:54:33.619Z,100216.56
2023-05-12T02:57:04.938Z,100227.06
2023-05-12T02:59:32.298Z,100219.75
2023-05-12T03:01:59.439Z,100216.13
2023-05-12T03:04:26.578Z,100220.47
2023-05-12T03:06:53.407Z,100216.97
2023-05-12T03:09:20.450Z,100216.13
2023-05-12T03:11:47.253Z,100219.78
2023-05-12T03:14:14.153Z,100220.78
2023-05-12T03:16:41.011Z,100217.63
2023-05-12T03:19:08.258Z,100222.59
2023-05-12T03:21:35.117Z,100218.94
2023-05-12T03:24:01.935Z,100217.81
2023-05-12T03:26:28.763Z,100212.47
2023-05-12T03:28:55.726Z,100213.28
2023-05-12T03:31:22.810Z,100222.09
2023-05-12T03:33:49.640Z,100218.75
2023-05-12T03:36:16.445Z,100216.63
2023-05-12T03:38:43.241Z,100213.47
2023-05-12T03:41:13.175Z,100222.41
2023-05-12T03:43:40.527Z,100213.81
2023-05-12T03:46:07.386Z,100220.78
2023-05-12T03:48:34.253Z,100230.41
2023-05-12T03:51:01.371Z,100221.59
2023-05-12T03:53:28.401Z,100226.75
2023-05-12T03:55:55.116Z,100221.44
2023-05-12T03:58:24.999Z,100214.94
2023-05-12T04:00:51.752Z,100231.25
2023-05-12T04:03:18.546Z,100223.28
2023-05-12T04:05:45.282Z,100228.94
2023-05-12T04:08:12.640Z,100225.59
2023-05-12T04:10:40.428Z,100217.13
2023-05-12T04:13:08.379Z,100220.97
2023-05-12T04:15:38.079Z,100226.13
2023-05-12T04:18:04.875Z,100231.44
2023-05-12T04:20:31.690Z,100227.63
2023-05-12T04:22:58.455Z,100230.44
2023-05-12T04:25:25.349Z,100231.47
2023-05-12T04:27:52.160Z,100230.94
2023-05-12T04:30:19.594Z,100224.28
2023-05-12T04:32:46.669Z,100233.78
2023-05-12T04:35:13.689Z,100233.41
2023-05-12T04:37:40.674Z,100231.75
2023-05-12T04:40:08.938Z,100236.25
2023-05-12T04:42:36.190Z,100235.59
2023-05-12T04:45:03.426Z,100247.06
2023-05-12T04:47:30.330Z,100244.75
2023-05-12T04:49:57.242Z,100256.84
2023-05-12T04:52:24.991Z,100260.22
2023-05-12T04:54:52.272Z,100259.69
2023-05-12T04:57:19.138Z,100253.91
2023-05-12T04:59:45.888Z,100264.88
2023-05-12T05:02:12.879Z,100258.41
2023-05-12T05:04:40.140Z,100266.53
2023-05-12T05:07:07.003Z,100261.38
2023-05-12T05:09:36.076Z,100263.03
2023-05-12T05:12:03.352Z,100271.38
2023-05-12T05:14:30.160Z,100269.38
2023-05-12T05:16:57.216Z,100278.03
2023-05-12T05:19:35.623Z,100270.69
2023-05-12T05:22:12.024Z,100272.91
2023-05-12T05:24:38.855Z,100275.03
2023-05-12T05:27:06.197Z,100277.06
2023-05-12T05:29:33.037Z,100278.34
2023-05-12T05:31:59.875Z,100279.72
2023-05-12T05:34:26.689Z,100278.03
2023-05-12T05:36:53.472Z,100278.88
2023-05-12T05:39:20.359Z,100282.50
2023-05-12T05:41:47.100Z,100291.31
2023-05-12T05:44:14.167Z,100295.97
2023-05-12T05:46:41.144Z,100292.66
2023-05-12T05:49:08.088Z,100292.31
2023-05-12T05:51:34.804Z,100284.00
2023-05-12T05:54:01.504Z,100295.81
2023-05-12T05:56:28.239Z,100300.31
2023-05-12T05:58:55.155Z,100291.69
2023-05-12T06:01:22.487Z,100294.66
2023-05-12T06:03:49.252Z,100290.38
2023-05-12T06:06:16.216Z,100299.50
2023-05-12T06:08:43.641Z,100298.34
2023-05-12T06:11:10.851Z,100304.13
2023-05-12T06:13:38.047Z,100304.63
2023-05-12T06:16:05.605Z,100311.28
2023-05-12T06:18:38.332Z,100310.13
2023-05-12T06:21:06.266Z,100315.28
2023-05-12T06:23:33.356Z,100321.59
2023-05-12T06:26:00.137Z,100314.44
2023-05-12T06:28:27.912Z,100317.28
2023-05-12T06:30:54.657Z,100319.28
2023-05-12T06:33:21.522Z,100307.31
2023-05-12T06:35:48.494Z,100331.72
2023-05-12T06:38:17.512Z,100323.09
2023-05-12T06:40:44.914Z,100323.75
2023-05-12T06:43:12.108Z,100330.22
2023-05-12T06:45:38.888Z,100325.06
2023-05-12T06:48:09.516Z,100330.75
2023-05-12T06:50:36.418Z,100318.94
2023-05-12T06:53:03.263Z,100326.91
2023-05-12T06:55:30.154Z,100320.44
2023-05-12T06:57:57.084Z,100332.91
2023-05-12T07:00:24.986Z,100324.59
2023-05-12T07:02:52.366Z,100338.03
2023-05-12T07:05:19.779Z,100329.91
2023-05-12T07:07:46.696Z,100332.22
2023-05-12T07:10:13.509Z,100324.91
2023-05-12T07:12:40.475Z,100340.22
2023-05-12T07:15:08.480Z,100340.06
2023-05-12T07:17:35.412Z,100336.75
2023-05-12T07:20:02.350Z,100330.94
2023-05-12T07:22:29.620Z,100338.91
2023-05-12T07:24:56.625Z,100337.25
2023-05-12T07:27:23.367Z,100333.09
2023-05-12T07:29:50.082Z,100335.72
2023-05-12T07:32:16.816Z,100333.75
2023-05-12T07:34:43.828Z,100339.06
2023-05-12T07:37:10.661Z,100337.06
2023-05-12T07:39:37.419Z,100342.06
2023-05-12T07:42:04.411Z,100342.91
2023-05-12T07:44:33.508Z,100340.41
2023-05-12T07:47:00.404Z,100344.03
2023-05-12T07:49:27.313Z,100347.88
2023-05-12T07:51:54.194Z,100349.22
2023-05-12T07:54:20.940Z,100349.72
2023-05-12T07:56:47.644Z,100346.72
2023-05-12T07:59:14.466Z,100350.19
2023-05-12T08:01:41.540Z,100352.22
2023-05-12T08:04:08.630Z,100357.19
2023-05-12T08:06:35.697Z,100354.53
2023-05-12T08:09:02.526Z,100344.88
2023-05-12T08:11:29.301Z,100361.97
2023-05-12T08:13:56.078Z,100361.97
2023-05-12T08:16:23.417Z,100372.31
2023-05-12T08:18:50.238Z,100375.63
2023-05-12T08:21:16.986Z,100373.47
2023-05-12T08:23:44.877Z,100370.13
2023-05-12T08:26:11.621Z,100382.63
2023-05-12T08:28:38.334Z,100380.78
2023-05-12T08:31:05.267Z,100378.09
2023-05-12T08:33:33.862Z,100384.94
2023-05-12T08:36:01.466Z,100386.78
2023-05-12T08:38:28.505Z,100376.44
2023-05-12T08:41:13.906Z,100386.91
2023-05-12T08:43:51.213Z,100389.25
2023-05-12T08:46:18.497Z,100385.47
2023-05-12T08:48:50.772Z,100384.09
2023-05-12T08:51:19.503Z,100387.75
2023-05-12T08:53:49.321Z,100389.41
2023-05-12T08:58:49.759Z,100386.59
2023-05-12T09:01:17.445Z,100386.75
2023-05-12T09:03:44.619Z,100383.75
2023-05-12T09:06:12.095Z,100375.44
2023-05-12T09:08:40.696Z,100383.59
2023-05-12T09:11:11.550Z,100389.75
2023-05-12T09:13:56.524Z,100387.91
2023-05-12T09:16:25.492Z,100386.59
2023-05-12T09:18:53.313Z,100388.25
2023-05-12T09:21:20.785Z,100391.25
2023-05-12T09:23:56.623Z,100383.94
2023-05-12T09:26:25.025Z,100395.56
2023-05-12T09:29:08.690Z,100400.72
2023-05-12T09:31:36.071Z,100403.38
2023-05-12T09:34:08.297Z,100400.56
2023-05-12T09:36:36.035Z,100400.38
2023-05-12T09:39:05.761Z,100406.69
2023-05-12T09:41:40.183Z,100404.03
2023-05-12T09:44:08.660Z,100393.25
2023-05-12T09:46:36.315Z,100394.22
2023-05-12T09:49:04.312Z,100391.91
2023-05-12T09:51:31.351Z,100393.69
2023-05-12T09:53:58.471Z,100396.69
2023-05-12T09:56:29.689Z,100391.03
2023-05-12T09:58:57.641Z,100392.19
2023-05-12T10:01:25.744Z,100392.69
2023-05-12T10:03:57.503Z,100401.00
2023-05-12T10:06:28.525Z,100389.06
2023-05-12T10:09:28.805Z,100395.69
2023-05-12T10:11:56.641Z,100390.34
2023-05-12T10:14:23.953Z,100392.69
2023-05-12T10:16:51.566Z,100397.34
2023-05-12T10:19:19.064Z,100398.31
2023-05-12T10:21:47.106Z,100390.00
2023-05-12T10:24:17.415Z,100392.97
2023-05-12T10:26:57.987Z,100379.00
2023-05-12T10:29:30.355Z,100389.13
2023-05-12T10:31:58.287Z,100387.94
2023-05-12T10:34:30.714Z,100392.09
2023-05-12T10:36:58.616Z,100387.59
2023-05-12T10:39:30.006Z,100387.56
2023-05-12T10:42:08.470Z,100377.88
2023-05-12T10:44:36.401Z,100394.88
2023-05-12T10:47:13.751Z,100394.38
2023-05-12T10:49:42.033Z,100392.53
2023-05-12T10:52:11.845Z,100393.06
2023-05-12T10:54:44.854Z,100393.88
2023-05-12T10:57:18.888Z,100383.41
2023-05-12T11:00:14.064Z,100391.91
2023-05-12T11:02:51.176Z,100396.88
2023-05-12T11:05:18.723Z,100392.53
2023-05-12T11:07:50.504Z,100399.34
2023-05-12T11:10:19.514Z,100388.22
2023-05-12T11:12:46.907Z,100398.69
2023-05-12T11:15:15.421Z,100397.47
2023-05-12T11:17:43.393Z,100401.44
2023-05-12T11:20:10.824Z,100399.59
2023-05-12T11:22:40.733Z,100396.22
2023-05-12T11:25:11.356Z,100401.19
2023-05-12T11:27:44.784Z,100404.69
2023-05-12T11:30:11.734Z,100404.69
2023-05-12T11:32:38.479Z,100405.69
2023-05-12T11:35:14.086Z,100402.53
2023-05-12T11:37:43.441Z,100404.03
2023-05-12T11:40:15.086Z,100410.22
2023-05-12T11:42:46.136Z,100415.06
2023-05-12T11:45:27.631Z,100413.75
2023-05-12T11:48:08.896Z,100412.44
2023-05-12T11:50:39.987Z,100414.75
2023-05-12T11:53:12.353Z,100406.88
2023-05-12T11:55:51.146Z,100405.69
2023-05-12T11:58:24.568Z,100412.69
2023-05-12T12:00:51.668Z,100415.31
2023-05-12T12:03:18.837Z,100418.97
2023-05-12T12:05:58.139Z,100408.63
2023-05-12T12:08:25.033Z,100402.63
2023-05-12T12:10:51.765Z,100415.31
2023-05-12T12:13:26.022Z,100409.66
2023-05-12T12:15:53.180Z,100419.97
2023-05-12T12:18:20.034Z,100411.75
2023-05-12T12:20:47.606Z,100424.72
2023-05-12T12:23:14.438Z,100426.84
2023-05-12T12:25:41.134Z,100420.06
2023-05-12T12:28:08.284Z,100413.91
2023-05-12T12:30:35.033Z,100420.38
2023-05-12T12:33:02.001Z,100414.69
2023-05-12T12:35:28.925Z,100414.34
2023-05-12T12:37:55.629Z,100413.22
2023-05-12T12:40:22.396Z,100421.88
2023-05-12T12:42:49.136Z,100414.53
2023-05-12T12:45:16.534Z,100419.16
2023-05-12T12:47:44.609Z,100416.53
2023-05-12T12:50:11.712Z,100419.16
2023-05-12T12:52:38.703Z,100422.00
2023-05-12T12:55:06.861Z,100421.34
2023-05-12T12:57:33.595Z,100424.78
2023-05-12T13:00:00.402Z,100418.03
2023-05-12T13:02:27.354Z,100424.72
2023-05-12T13:04:54.251Z,100416.94
2023-05-12T13:07:20.947Z,100434.59
2023-05-12T13:09:48.042Z,100431.88
2023-05-12T13:12:14.805Z,100422.16
2023-05-12T13:14:41.746Z,100420.28
2023-05-12T13:17:08.452Z,100434.13
2023-05-12T13:19:37.830Z,100434.13
2023-05-12T13:22:05.319Z,100441.81
2023-05-12T13:24:32.087Z,100444.97
2023-05-12T13:26:58.979Z,100445.59
2023-05-12T13:29:25.864Z,100452.25
2023-05-12T13:31:52.608Z,100449.13
2023-05-12T13:34:19.493Z,100444.13
2023-05-12T13:36:46.237Z,100439.66
2023-05-12T13:39:13.132Z,100445.47
2023-05-12T13:41:39.849Z,100440.47
2023-05-12T13:44:06.655Z,100431.56
2023-05-12T13:46:33.407Z,100452.31
2023-05-12T13:49:00.156Z,100453.53
2023-05-12T13:51:26.988Z,100450.69
2023-05-12T13:53:53.983Z,100446.81
2023-05-12T13:56:20.831Z,100448.03
2023-05-12T13:58:47.858Z,100442.69
2023-05-12T14:01:15.039Z,100441.66
2023-05-12T14:03:42.596Z,100454.50
2023-05-12T14:06:09.392Z,100447.31
2023-05-12T14:08:36.498Z,100445.63
2023-05-12T14:11:03.504Z,100434.13
2023-05-12T14:13:31.087Z,100426.94
2023-05-12T14:15:58.438Z,100413.66
2023-05-12T14:18:25.898Z,100432.00
2023-05-12T14:20:52.953Z,100415.84
2023-05-12T14:23:19.738Z,100433.31
2023-05-12T14:25:46.490Z,100441.13
2023-05-12T14:28:13.291Z,100440.44
2023-05-12T14:30:40.405Z,100417.97
2023-05-12T14:33:07.933Z,100413.31
2023-05-12T14:35:34.928Z,100434.25
2023-05-12T14:38:01.760Z,100445.38
2023-05-12T14:40:28.555Z,100437.94
2023-05-12T14:42:55.440Z,100444.78
2023-05-12T14:45:22.589Z,100442.66
2023-05-12T14:47:49.535Z,100456.41
2023-05-12T14:50:18.348Z,100446.63
2023-05-12T14:52:45.466Z,100447.28
2023-05-12T14:55:12.409Z,100460.44
2023-05-12T14:57:40.758Z,100447.91
2023-05-12T15:00:09.687Z,100459.75
2023-05-12T15:02:36.607Z,100461.22
2023-05-12T15:05:03.979Z,100459.75
2023-05-12T15:07:30.771Z,100452.75
2023-05-12T15:09:57.548Z,100452.78
2023-05-12T15:12:24.365Z,100446.13
2023-05-12T15:14:51.225Z,100453.75
2023-05-12T15:17:18.129Z,100457.22
2023-05-12T15:19:45.299Z,100463.59
2023-05-12T15:22:12.184Z,100463.09
2023-05-12T15:24:38.975Z,100460.06
2023-05-12T15:27:05.763Z,100455.41
2023-05-12T15:29:32.648Z,100465.72
2023-05-12T15:31:59.423Z,100467.69
2023-05-12T15:34:26.443Z,100458.88
2023-05-12T15:36:53.130Z,100459.03
2023-05-12T15:39:21.639Z,100465.38
2023-05-12T15:41:50.400Z,100450.03
2023-05-12T15:44:17.181Z,100455.97
2023-05-12T15:46:44.037Z,100466.00
2023-05-12T15:49:11.123Z,100459.19
2023-05-12T15:51:38.175Z,100468.69
2023-05-12T15:54:07.136Z,100465.66
2023-05-12T15:56:36.051Z,100465.81
2023-05-12T15:59:02.942Z,100462.31
2023-05-12T16:01:29.888Z,100461.63
2023-05-12T16:03:56.941Z,100456.78
2023-05-12T16:06:24.079Z,100453.97
2023-05-12T16:08:50.812Z,100462.25
2023-05-12T16:11:17.745Z,100468.44
2023-05-12T16:13:44.555Z,100471.31
2023-05-12T16:16:11.627Z,100468.09
2023-05-12T16:18:40.089Z,100467.25
2023-05-12T16:21:07.238Z,100464.75
2023-05-12T16:23:33.965Z,100464.13
2023-05-12T16:26:00.807Z,100467.09
2023-05-12T16:28:28.134Z,100474.25
2023-05-12T16:30:54.927Z,100472.94
2023-05-12T16:33:21.708Z,100476.63
2023-05-12T16:35:48.397Z,100471.94
2023-05-12T16:38:15.255Z,100477.59
2023-05-12T16:40:42.030Z,100474.25
2023-05-12T16:43:08.806Z,100474.38
2023-05-12T16:45:35.547Z,100474.88
2023-05-12T16:48:02.394Z,100475.88
2023-05-12T16:50:31.220Z,100467.09
2023-05-12T16:52:58.040Z,100478.22
2023-05-12T16:55:25.002Z,100478.34
2023-05-12T16:57:51.762Z,100476.88
2023-05-12T17:00:18.876Z,100468.50
2023-05-12T17:02:45.641Z,100471.00
2023-05-12T17:05:12.622Z,100480.84
2023-05-12T17:07:39.371Z,100478.66
2023-05-12T17:10:06.821Z,100484.00
2023-05-12T17:12:33.635Z,100480.22
2023-05-12T17:15:07.513Z,100479.66
2023-05-12T17:17:48.391Z,100486.00
2023-05-12T17:20:15.193Z,100483.66
2023-05-12T17:22:44.413Z,100485.19
2023-05-12T17:25:11.283Z,100480.50
2023-05-12T17:27:38.297Z,100486.84
2023-05-12T17:30:06.262Z,100484.69
2023-05-12T17:32:33.049Z,100497.41
2023-05-12T17:34:59.859Z,100482.06
2023-05-12T17:37:26.832Z,100496.72
2023-05-12T17:39:53.749Z,100502.78
2023-05-12T17:42:20.539Z,100508.94
2023-05-12T17:44:47.615Z,100513.13
2023-05-12T17:47:14.698Z,100517.47
2023-05-12T17:49:41.797Z,100525.66
2023-05-12T17:52:08.606Z,100526.69
2023-05-12T17:54:35.462Z,100527.41
2023-05-12T17:57:03.299Z,100525.06
2023-05-12T17:59:30.099Z,100532.22
2023-05-12T18:01:56.913Z,100524.44
2023-05-12T18:04:23.659Z,100539.63
2023-05-12T18:06:50.370Z,100530.78
2023-05-12T18:09:17.969Z,100530.00
2023-05-12T18:11:44.844Z,100538.97
2023-05-12T18:14:11.677Z,100535.84
2023-05-12T18:16:38.548Z,100527.69
2023-05-12T18:19:05.502Z,100544.03
2023-05-12T18:21:32.789Z,100548.31
2023-05-12T18:23:59.625Z,100557.00
2023-05-12T18:26:26.996Z,100553.16
2023-05-12T18:28:53.804Z,100552.50
2023-05-12T18:31:20.672Z,100557.19
2023-05-12T18:33:48.678Z,100552.00
2023-05-12T18:36:16.578Z,100555.03
2023-05-12T18:38:43.682Z,100561.84
2023-05-12T18:41:10.552Z,100564.19
2023-05-12T18:43:37.727Z,100560.22
2023-05-12T18:46:04.894Z,100572.38
2023-05-12T18:48:31.815Z,100572.84
2023-05-12T18:50:58.587Z,100578.88
2023-05-12T18:53:25.568Z,100580.03
2023-05-12T18:55:52.360Z,100586.88
2023-05-12T18:58:19.311Z,100583.22
2023-05-12T19:00:45.959Z,100587.03
2023-05-12T19:03:12.918Z,100595.03
2023-05-12T19:05:44.667Z,100586.19
2023-05-12T19:08:12.296Z,100594.03
2023-05-12T19:10:40.147Z,100602.19
2023-05-12T19:13:07.211Z,100606.31
2023-05-12T19:15:34.048Z,100598.81
2023-05-12T19:18:00.913Z,100602.03
2023-05-12T19:20:29.078Z,100603.16
2023-05-12T19:22:56.492Z,100605.81
2023-05-12T19:25:23.773Z,100611.50
2023-05-12T19:27:51.001Z,100614.16
2023-05-12T19:30:17.875Z,100612.66
2023-05-12T19:32:46.016Z,100613.63
2023-05-12T19:35:16.728Z,100617.13
2023-05-12T19:37:43.948Z,100615.31
2023-05-12T19:40:11.137Z,100621.97
2023-05-12T19:42:38.017Z,100627.31
2023-05-12T19:45:05.582Z,100627.13
2023-05-12T19:47:33.459Z,100630.13
2023-05-12T19:50:00.778Z,100632.63
2023-05-12T19:52:30.622Z,100634.47
2023-05-12T19:54:57.561Z,100640.28
2023-05-12T19:57:24.432Z,100647.63
2023-05-12T19:59:51.215Z,100649.44
2023-05-12T20:02:18.089Z,100646.25
2023-05-12T20:04:44.974Z,100648.59
2023-05-12T20:07:11.714Z,100651.75
2023-05-12T20:09:38.502Z,100655.09
2023-05-12T20:12:08.050Z,100651.81
2023-05-12T20:14:36.284Z,100656.31
2023-05-12T20:17:05.807Z,100645.78
2023-05-12T20:19:33.336Z,100653.94
2023-05-12T20:22:00.178Z,100648.09
2023-05-12T20:24:26.969Z,100652.75
2023-05-12T20:26:54.098Z,100653.59
2023-05-12T20:29:21.044Z,100656.59
2023-05-12T20:31:49.109Z,100656.09
2023-05-12T20:34:16.287Z,100648.25
2023-05-12T20:36:47.066Z,100653.25
2023-05-12T20:39:15.193Z,100656.09
2023-05-12T20:41:43.492Z,100649.25
2023-05-12T20:44:10.935Z,100657.41
2023-05-12T20:46:38.715Z,100666.41
2023-05-12T20:49:06.316Z,100649.22
2023-05-12T20:51:33.509Z,100657.22
2023-05-12T20:54:00.498Z,100662.06
2023-05-12T20:56:27.356Z,100651.75
2023-05-12T20:58:54.391Z,100663.25
2023-05-12T21:01:21.299Z,100662.22
2023-05-12T21:03:48.269Z,100652.22
2023-05-12T21:06:15.020Z,100667.88
2023-05-12T21:08:41.754Z,100667.72
2023-05-12T21:11:16.414Z,100664.38
2023-05-12T21:13:45.016Z,100656.88
2023-05-12T21:16:11.797Z,100668.34
2023-05-12T21:18:38.729Z,100670.53
2023-05-12T21:21:09.227Z,100672.34
2023-05-12T21:23:38.918Z,100673.84
2023-05-12T21:26:05.985Z,100672.81
2023-05-12T21:28:32.817Z,100665.34
2023-05-12T21:30:59.574Z,100679.31
2023-05-12T21:33:26.281Z,100680.00
2023-05-12T21:35:53.020Z,100682.13
2023-05-12T21:38:20.780Z,100673.00
2023-05-12T21:40:56.332Z,100685.44
2023-05-12T21:43:23.220Z,100682.78
2023-05-12T21:45:50.014Z,100685.13
2023-05-12T21:48:16.843Z,100687.97
2023-05-12T21:50:43.616Z,100684.13
2023-05-12T21:53:10.499Z,100690.16
2023-05-12T21:55:37.189Z,100682.50
2023-05-12T21:58:03.930Z,100687.97
2023-05-12T22:00:30.742Z,100672.31
2023-05-12T22:02:57.465Z,100688.16
2023-05-12T22:05:24.233Z,100686.34
2023-05-12T22:07:51.096Z,100694.66
2023-05-12T22:10:18.112Z,100690.97
2023-05-12T22:12:45.969Z,100690.34
2023-05-12T22:15:12.859Z,100688.84
2023-05-12T22:17:39.753Z,100692.81
2023-05-12T22:20:07.540Z,100679.34
2023-05-12T22:22:34.423Z,100681.16
2023-05-12T22:25:01.313Z,100671.13
2023-05-12T22:27:28.038Z,100686.13
2023-05-12T22:29:56.723Z,100680.50
2023-05-12T22:32:23.719Z,100689.31
2023-05-12T22:34:53.452Z,100683.84
2023-05-12T22:37:20.670Z,100680.16
2023-05-12T22:39:47.388Z,100674.97
2023-05-12T22:42:14.128Z,100686.66
2023-05-12T22:44:40.851Z,100679.50
2023-05-12T22:47:07.754Z,100673.69
2023-05-12T22:49:34.777Z,100676.16
2023-05-12T22:52:01.457Z,100662.69
2023-05-12T22:54:28.197Z,100671.19
2023-05-12T22:56:54.923Z,100677.00
2023-05-12T22:59:21.685Z,100675.72
2023-05-12T23:01:48.445Z,100674.19
2023-05-12T23:04:15.165Z,100685.84
2023-05-12T23:06:41.920Z,100675.88
2023-05-12T23:09:09.152Z,100677.31
2023-05-12T23:11:35.862Z,100678.00
2023-05-12T23:14:02.678Z,100681.66
2023-05-12T23:16:29.558Z,100670.34
2023-05-12T23:18:56.431Z,100666.84
2023-05-12T23:21:23.197Z,100675.31
2023-05-12T23:23:49.877Z,100668.31
2023-05-12T23:26:16.752Z,100665.19
2023-05-12T23:28:43.487Z,100670.69
2023-05-12T23:31:10.314Z,100662.00
2023-05-12T23:33:37.158Z,100655.34
2023-05-12T23:36:04.294Z,100657.03
2023-05-12T23:38:31.230Z,100667.03
2023-05-12T23:40:58.255Z,100660.88
2023-05-12T23:43:25.337Z,100657.22
2023-05-12T23:45:52.170Z,100653.53
2023-05-12T23:48:19.154Z,100656.34
2023-05-12T23:50:45.978Z,100659.72
2023-05-12T23:53:12.806Z,100662.19
2023-05-12T23:55:39.675Z,100654.38
2023-05-12T23:58:06.925Z,100647.19
